Time;durP1;ratioP1;P1;durP2;ratioP2;P2;SDS_P1;SDS_P2;PMS_P1;PMS_P2;Temp;Humidity;BMP_temperature;BMP_pressure;BME280_temperature;BME280_humidity;BME280_pressure;Samples;Min_cycle;Max_cycle;Signal;HPM_P1;HPM_P2
2022/09/24 00:01:55;;;;;;;4.57;4.27;;;;;;;11.65;100.00;99991.66;5013493;28;22221;-75
2022/09/24 00:04:24;;;;;;;4.63;4.23;;;;;;;11.64;100.00;99993.41;5018101;28;20185;-75
2022/09/24 00:06:49;;;;;;;4.53;4.23;;;;;;;11.61;100.00;99990.84;5018446;28;20295;-75
2022/09/24 00:09:18;;;;;;;5.20;4.80;;;;;;;11.61;100.00;99985.66;5011713;28;20272;-75
2022/09/24 00:11:44;;;;;;;4.50;4.10;;;;;;;11.60;100.00;99978.78;5014294;28;20195;-75
2022/09/24 00:14:10;;;;;;;4.43;4.13;;;;;;;11.61;100.00;99980.50;5012179;28;20200;-75
2022/09/24 00:16:38;;;;;;;4.53;4.13;;;;;;;11.61;100.00;99972.72;5014419;28;20557;-75
2022/09/24 00:19:04;;;;;;;4.40;4.10;;;;;;;11.61;100.00;99977.03;5017761;28;20662;-75
2022/09/24 00:21:31;;;;;;;4.73;4.40;;;;;;;11.61;100.00;99984.81;5012471;28;20185;-76
2022/09/24 00:27:01;;;;;;;4.70;4.30;;;;;;;11.58;100.00;99983.13;5015601;28;20213;-76
2022/09/24 00:29:27;;;;;;;4.70;4.40;;;;;;;11.58;100.00;99972.75;5015693;28;20196;-74
2022/09/24 00:31:53;;;;;;;4.80;4.37;;;;;;;11.57;100.00;99968.47;5014624;28;20211;-74
2022/09/24 00:34:20;;;;;;;4.97;4.57;;;;;;;11.55;100.00;99965.03;5016923;28;20305;-76
2022/09/24 00:36:45;;;;;;;5.30;4.80;;;;;;;11.52;100.00;99962.50;5014669;28;20212;-75
2022/09/24 00:39:11;;;;;;;4.57;4.17;;;;;;;11.47;100.00;99960.00;5014949;28;20196;-74
2022/09/24 00:41:38;;;;;;;4.73;4.30;;;;;;;11.41;100.00;99955.78;5012984;28;20566;-75
2022/09/24 00:44:41;;;;;;;5.00;4.60;;;;;;;11.34;100.00;99964.56;5015641;28;20205;-75
2022/09/24 00:47:12;;;;;;;4.80;4.40;;;;;;;11.24;100.00;99971.63;5009638;28;20204;-75
2022/09/24 00:49:39;;;;;;;5.40;4.20;;;;;;;11.18;100.00;99968.28;5013798;28;20672;-74
2022/09/24 00:52:05;;;;;;;4.50;4.20;;;;;;;11.11;100.00;99963.19;5013203;28;20619;-75
2022/09/24 00:54:31;;;;;;;5.07;4.67;;;;;;;11.05;100.00;99958.09;5012741;28;20295;-76
2022/09/24 00:56:59;;;;;;;4.50;4.20;;;;;;;11.01;100.00;99959.06;5018337;28;20354;-75
2022/09/24 00:59:25;;;;;;;4.40;4.10;;;;;;;10.95;100.00;99957.41;5018556;28;20279;-75
2022/09/24 01:01:56;;;;;;;3.60;3.40;;;;;;;10.91;100.00;99960.94;5011460;28;20531;-75
2022/09/24 01:04:23;;;;;;;4.23;3.77;;;;;;;10.88;100.00;99957.53;5011722;28;20715;-75
2022/09/24 01:06:49;;;;;;;4.80;4.40;;;;;;;10.84;100.00;99948.94;5016015;28;20220;-76
2022/09/24 01:09:17;;;;;;;4.63;4.23;;;;;;;10.80;100.00;99945.56;5018920;28;20196;-75
2022/09/24 01:12:13;;;;;;;4.43;4.13;;;;;;;10.77;100.00;99939.56;5015603;28;20595;-75
2022/09/24 01:15:14;;;;;;;4.87;4.47;;;;;;;10.73;100.00;99943.94;4997336;28;20236;-74
2022/09/24 01:17:42;;;;;;;5.10;4.80;;;;;;;10.67;100.00;99950.03;5016319;28;20201;-75
2022/09/24 01:20:28;;;;;;;4.50;4.10;;;;;;;10.64;100.00;99944.94;5016695;28;20192;-76
2022/09/24 01:23:09;;;;;;;4.67;4.27;;;;;;;10.61;100.00;99942.41;5011609;28;20201;-75
2022/09/24 01:25:37;;;;;;;4.30;3.83;;;;;;;10.57;100.00;99930.38;5016231;28;20636;-75
2022/09/24 01:28:30;;;;;;;4.97;4.40;;;;;;;10.56;100.00;99928.66;5014521;28;20257;-74
2022/09/24 01:31:07;;;;;;;5.30;4.90;;;;;;;10.57;100.00;99926.94;5016087;28;20348;-73
2022/09/24 01:33:35;;;;;;;4.40;4.10;;;;;;;10.59;100.00;99918.28;5014229;28;20212;-75
2022/09/24 01:36:07;;;;;;;5.10;4.70;;;;;;;10.62;100.00;99923.41;5017788;28;20561;-75
2022/09/24 01:38:37;;;;;;;5.00;4.60;;;;;;;10.65;100.00;99923.38;5017288;28;20188;-75
2022/09/24 01:41:06;;;;;;;5.10;4.60;;;;;;;10.67;100.00;99923.34;5013066;28;20191;-74
2022/09/24 01:43:32;;;;;;;4.63;4.33;;;;;;;10.68;100.00;99915.53;5016651;28;20635;-75
2022/09/24 01:46:01;;;;;;;4.90;4.50;;;;;;;10.70;100.00;99906.88;5014636;28;20208;-75
2022/09/24 01:48:27;;;;;;;5.07;4.63;;;;;;;10.71;100.00;99909.47;5014969;28;20636;-75
2022/09/24 01:51:07;;;;;;;4.40;4.10;;;;;;;10.73;100.00;99907.72;5013593;28;20760;-74
2022/09/24 01:53:39;;;;;;;5.13;4.73;;;;;;;10.76;100.00;99906.81;5015748;28;20219;-75
2022/09/24 01:56:10;;;;;;;5.33;4.83;;;;;;;10.78;100.00;99910.22;5011672;28;20208;-75
2022/09/24 01:58:43;;;;;;;5.27;4.87;;;;;;;10.78;100.00;99899.88;5011499;28;20185;-75
2022/09/24 02:01:17;;;;;;;4.93;4.53;;;;;;;10.77;100.00;99899.00;5016136;28;20188;-75
2022/09/24 02:03:50;;;;;;;5.40;5.00;;;;;;;10.77;100.00;99904.19;5012622;28;20710;-76
2022/09/24 02:06:25;;;;;;;5.33;4.33;;;;;;;10.78;100.00;99912.81;5014857;28;20565;-75
2022/09/24 02:08:50;;;;;;;5.00;4.60;;;;;;;10.78;100.00;99910.22;5018666;28;20192;-75
2022/09/24 02:11:18;;;;;;;4.90;4.50;;;;;;;10.79;100.00;99917.97;5019311;28;20400;-74
2022/09/24 02:14:02;;;;;;;4.30;4.00;;;;;;;10.80;100.00;99906.72;5014176;28;20244;-75
2022/09/24 02:16:34;;;;;;;5.00;4.60;;;;;;;10.79;100.00;99905.00;5016296;28;20597;-76
2022/09/24 02:19:03;;;;;;;4.57;4.17;;;;;;;10.80;100.00;99900.72;5021932;28;20266;-74
2022/09/24 02:21:31;;;;;;;4.83;4.43;;;;;;;10.80;100.00;99903.28;5022401;28;20563;-74
2022/09/24 02:24:17;;;;;;;4.97;4.57;;;;;;;10.79;100.00;99907.59;5021145;28;20185;-75
2022/09/24 02:26:42;;;;;;;5.53;4.53;;;;;;;10.80;100.00;99905.88;5013897;28;20680;-75
2022/09/24 02:29:08;;;;;;;5.20;4.73;;;;;;;10.80;100.00;99911.06;5015615;28;20287;-74
2022/09/24 02:31:54;;;;;;;4.97;4.57;;;;;;;10.81;100.00;99898.09;5016629;28;20186;-74
2022/09/24 02:34:32;;;;;;;4.40;4.10;;;;;;;10.83;100.00;99903.22;5013242;28;20216;-75
2022/09/24 02:37:04;;;;;;;4.47;4.17;;;;;;;10.83;100.00;99908.41;5017102;28;20207;-75
2022/09/24 02:39:29;;;;;;;5.07;4.67;;;;;;;10.82;100.00;99902.38;5019667;28;20189;-74
2022/09/24 02:41:55;;;;;;;4.73;4.33;;;;;;;10.83;100.00;99898.91;5013068;28;20249;-75
2022/09/24 02:44:21;;;;;;;4.80;4.40;;;;;;;10.84;100.00;99902.34;5013394;28;20208;-75
2022/09/24 02:46:49;;;;;;;4.90;4.50;;;;;;;10.84;100.00;99910.13;5014164;28;20258;-75
2022/09/24 02:49:15;;;;;;;4.60;4.30;;;;;;;10.86;100.00;99910.94;5025473;28;20211;-75
2022/09/24 02:51:42;;;;;;;4.87;4.50;;;;;;;10.87;100.00;99901.47;5020598;28;20229;-74
2022/09/24 02:54:08;;;;;;;4.97;4.57;;;;;;;10.88;100.00;99895.41;5018905;28;20212;-75
2022/09/24 02:56:34;;;;;;;4.50;4.20;;;;;;;10.88;100.00;99896.25;5018474;28;20232;-75
2022/09/24 02:59:01;;;;;;;4.93;4.53;;;;;;;10.88;100.00;99896.25;5016632;28;20199;-75
2022/09/24 03:01:28;;;;;;;4.97;4.57;;;;;;;10.89;100.00;99894.53;5041275;28;20173;-77
2022/09/24 03:03:53;;;;;;;6.10;4.63;;;;;;;10.88;100.00;99896.25;5043974;28;20199;-75
2022/09/24 03:06:18;;;;;;;4.50;4.20;;;;;;;10.86;100.00;99900.59;5019539;28;20203;-74
2022/09/24 03:08:44;;;;;;;5.00;4.60;;;;;;;10.85;100.00;99900.63;5015584;28;20180;-75
2022/09/24 03:11:10;;;;;;;5.07;4.67;;;;;;;10.83;100.00;99892.88;5026134;28;20456;-75
2022/09/24 03:13:37;;;;;;;4.47;4.17;;;;;;;10.82;100.00;99888.56;5018793;28;20207;-75
2022/09/24 03:16:03;;;;;;;4.73;4.33;;;;;;;10.81;100.00;99884.31;5012509;28;20237;-73
2022/09/24 03:18:28;;;;;;;4.40;4.00;;;;;;;10.80;100.00;99877.41;5015995;28;20195;-74
2022/09/24 03:20:59;;;;;;;4.60;4.27;;;;;;;10.78;100.00;99892.94;5017586;28;20188;-75
2022/09/24 03:23:24;;;;;;;4.70;4.03;;;;;;;10.78;100.00;99889.53;5020230;28;20179;-74
2022/09/24 03:25:50;;;;;;;4.40;4.00;;;;;;;10.77;100.00;99892.97;5016784;28;20581;-74
2022/09/24 03:28:16;;;;;;;4.17;3.93;;;;;;;10.79;100.00;99893.81;5018529;28;20179;-75
2022/09/24 03:33:48;;;;;;;4.23;3.93;;;;;;;10.80;100.00;99886.03;5000867;28;20419;-73
2022/09/24 03:36:15;;;;;;;4.67;4.37;;;;;;;10.80;100.00;99895.53;5022852;28;20203;-75
2022/09/24 03:38:42;;;;;;;4.20;3.90;;;;;;;10.82;100.00;99902.38;5021427;28;20186;-76
2022/09/24 03:41:08;;;;;;;4.10;3.80;;;;;;;10.87;100.00;99898.88;5017785;28;20188;-76
2022/09/24 03:43:34;;;;;;;4.37;3.97;;;;;;;10.91;100.00;99892.75;5017695;28;20188;-76
2022/09/24 03:45:59;;;;;;;4.70;4.40;;;;;;;10.95;100.00;99892.69;5011067;28;20225;-75
2022/09/24 03:48:25;;;;;;;4.50;4.13;;;;;;;10.96;100.00;99886.63;5010755;28;20204;-75
2022/09/24 03:50:51;;;;;;;4.57;4.27;;;;;;;10.96;100.00;99883.16;5018404;28;20191;-75
2022/09/24 03:53:17;;;;;;;4.30;4.00;;;;;;;10.96;100.00;99883.16;5013744;28;20685;-75
2022/09/24 03:55:51;;;;;;;4.27;3.90;;;;;;;10.95;100.00;99887.50;5013385;28;20211;-75
2022/09/24 03:58:16;;;;;;;4.20;3.90;;;;;;;10.93;100.00;99883.22;5017058;28;20172;-75
2022/09/24 04:00:42;;;;;;;4.30;4.00;;;;;;;10.90;100.00;99880.69;5021778;28;20419;-75
2022/09/24 04:03:08;;;;;;;4.60;4.20;;;;;;;10.86;100.00;99869.53;5016619;28;20642;-75
2022/09/24 04:05:34;;;;;;;4.40;4.10;;;;;;;10.80;100.00;99875.66;5012730;28;20216;-74
2022/09/24 04:08:01;;;;;;;4.00;3.70;;;;;;;10.76;100.00;99880.91;5014840;28;20192;-74
2022/09/24 04:10:26;;;;;;;4.23;3.93;;;;;;;10.71;100.00;99878.41;5018407;28;20176;-74
2022/09/24 04:12:52;;;;;;;5.03;4.63;;;;;;;10.68;100.00;99883.63;5017063;28;20808;-74
2022/09/24 04:15:18;;;;;;;4.77;4.37;;;;;;;10.65;100.00;99866.44;5019915;28;20218;-75
2022/09/24 04:17:51;;;;;;;4.87;4.47;;;;;;;10.64;100.00;99863.84;5014758;28;20274;-75
2022/09/24 04:20:21;;;;;;;4.67;4.27;;;;;;;10.62;100.00;99869.06;5018863;28;20233;-75
2022/09/24 04:22:46;;;;;;;4.87;4.47;;;;;;;10.60;100.00;99867.34;5021079;28;20497;-74
2022/09/24 04:25:12;;;;;;;4.90;4.50;;;;;;;10.57;100.00;99870.03;5014272;28;20682;-74
2022/09/24 04:27:38;;;;;;;4.70;4.30;;;;;;;10.51;100.00;99865.78;5018826;28;20192;-77
2022/09/24 04:30:03;;;;;;;5.00;4.60;;;;;;;10.48;100.00;99860.66;5014031;28;20664;-76
2022/09/24 04:32:29;;;;;;;5.20;4.70;;;;;;;10.43;100.00;99863.31;5012518;28;20224;-75
2022/09/24 04:34:54;;;;;;;4.77;4.37;;;;;;;10.38;100.00;99862.53;5012192;28;20299;-78
2022/09/24 04:37:19;;;;;;;4.33;4.03;;;;;;;10.33;100.00;99862.56;5015359;28;20254;-77
2022/09/24 04:39:45;;;;;;;4.67;4.33;;;;;;;10.29;100.00;99858.31;5011096;28;20290;-75
2022/09/24 04:42:15;;;;;;;4.50;4.20;;;;;;;10.27;100.00;99856.63;5016552;28;20274;-76
2022/09/24 04:44:45;;;;;;;4.80;4.40;;;;;;;10.27;100.00;99861.81;5010980;28;20194;-75
2022/09/24 04:47:10;;;;;;;5.00;4.60;;;;;;;10.25;100.00;99874.75;5013870;28;20216;-76
2022/09/24 04:49:35;;;;;;;5.57;5.10;;;;;;;10.29;100.00;99872.97;5015967;28;20223;-75
2022/09/24 04:52:01;;;;;;;4.90;4.50;;;;;;;10.32;100.00;99865.16;5016260;28;20625;-75
2022/09/24 04:54:28;;;;;;;4.53;4.23;;;;;;;10.36;100.00;99877.19;5013806;28;20306;-74
2022/09/24 04:56:53;;;;;;;5.37;4.97;;;;;;;10.40;100.00;99870.25;5013064;28;20258;-75
2022/09/24 04:59:19;;;;;;;4.87;4.50;;;;;;;10.41;100.00;99866.78;5020644;28;20188;-76
2022/09/24 05:01:46;;;;;;;5.60;5.10;;;;;;;10.43;100.00;99878.84;5016297;28;20203;-76
2022/09/24 05:04:12;;;;;;;4.87;4.47;;;;;;;10.45;100.00;99869.31;5012387;28;20180;-76
2022/09/24 05:06:37;;;;;;;4.50;4.13;;;;;;;10.47;100.00;99869.31;5013289;28;20275;-76
2022/09/24 05:09:03;;;;;;;4.17;3.77;;;;;;;10.48;100.00;99864.09;5013354;28;20200;-76
2022/09/24 05:11:28;;;;;;;4.57;4.17;;;;;;;10.48;100.00;99865.84;5019474;28;20214;-76
2022/09/24 05:13:54;;;;;;;4.60;4.10;;;;;;;10.47;100.00;99870.13;5013000;28;20302;-76
2022/09/24 05:16:19;;;;;;;4.30;4.00;;;;;;;10.46;100.00;99865.84;5017258;28;20261;-75
2022/09/24 05:18:44;;;;;;;4.47;4.07;;;;;;;10.45;100.00;99864.13;5014211;28;20191;-76
2022/09/24 05:21:10;;;;;;;4.13;3.83;;;;;;;10.44;100.00;99871.94;5012625;28;20198;-76
2022/09/24 05:23:35;;;;;;;4.33;4.00;;;;;;;10.44;100.00;99871.94;5011115;28;20188;-75
2022/09/24 05:28:44;;;;;;;4.33;3.93;;;;;;;10.43;100.00;99865.91;5016977;28;20546;-75
2022/09/24 05:31:10;;;;;;;4.57;4.03;;;;;;;10.46;100.00;99875.34;5014822;28;20187;-74
2022/09/24 05:33:36;;;;;;;4.43;3.73;;;;;;;10.49;100.00;99868.38;5017642;28;20220;-75
2022/09/24 05:36:03;;;;;;;5.03;4.63;;;;;;;10.56;100.00;99884.66;5028895;28;20204;-75
2022/09/24 05:38:28;;;;;;;4.60;4.30;;;;;;;10.59;100.00;99876.88;5014695;28;20203;-74
2022/09/24 05:40:54;;;;;;;4.53;4.23;;;;;;;10.64;100.00;99884.56;5014127;28;20554;-75
2022/09/24 05:43:20;;;;;;;4.50;4.20;;;;;;;10.66;100.00;99875.88;5017117;28;20191;-74
2022/09/24 05:45:45;;;;;;;4.80;4.40;;;;;;;10.68;100.00;99875.88;5017029;28;20238;-75
2022/09/24 05:48:11;;;;;;;5.10;4.60;;;;;;;10.71;100.00;99878.41;5019115;28;20192;-75
2022/09/24 05:50:36;;;;;;;4.47;4.17;;;;;;;10.74;100.00;99877.50;5014829;28;20191;-74
2022/09/24 05:53:04;;;;;;;5.00;4.57;;;;;;;10.77;100.00;99878.28;5015277;28;20195;-75
2022/09/24 05:55:29;;;;;;;4.80;4.47;;;;;;;10.80;100.00;99877.41;5022739;28;20672;-75
2022/09/24 05:57:55;;;;;;;5.00;4.60;;;;;;;10.83;100.00;99872.16;5020603;28;20184;-75
2022/09/24 06:00:21;;;;;;;4.80;4.40;;;;;;;10.87;100.00;99876.41;5017417;28;20194;-75
2022/09/24 06:02:46;;;;;;;4.50;4.10;;;;;;;10.91;100.00;99877.22;5017326;28;20196;-75
2022/09/24 06:05:11;;;;;;;5.37;4.90;;;;;;;10.94;100.00;99885.81;5020490;28;20187;-75
2022/09/24 06:07:37;;;;;;;7.23;6.50;;;;;;;10.99;100.00;99896.06;5025958;28;20191;-75
2022/09/24 06:10:04;;;;;;;8.10;7.40;;;;;;;11.06;100.00;99900.25;5016544;28;20196;-74
2022/09/24 06:12:30;;;;;;;7.43;6.73;;;;;;;11.10;100.00;99890.72;5017476;28;20741;-75
2022/09/24 06:14:55;;;;;;;7.70;7.00;;;;;;;11.16;100.00;99884.56;5014196;28;20245;-75
2022/09/24 06:17:21;;;;;;;8.73;6.90;;;;;;;11.21;100.00;99883.59;5017940;28;20217;-74
2022/09/24 06:19:46;;;;;;;7.87;7.17;;;;;;;11.31;100.00;99888.59;5023389;28;20251;-74
2022/09/24 06:22:12;;;;;;;7.10;6.50;;;;;;;11.39;100.00;99889.34;5028404;28;20190;-75
2022/09/24 06:24:38;;;;;;;9.00;6.67;;;;;;;11.50;100.00;99889.09;5025854;28;20203;-74
2022/09/24 06:27:03;;;;;;;8.53;7.50;;;;;;;11.61;100.00;99892.38;5018643;28;20242;-75
2022/09/24 06:29:29;;;;;;;9.87;8.70;;;;;;;11.70;100.00;99894.75;5012884;28;20224;-75
2022/09/24 06:31:54;;;;;;;10.73;8.90;;;;;;;11.79;100.00;99898.06;5012992;28;20326;-74
2022/09/24 06:34:19;;;;;;;9.70;8.13;;;;;;;11.84;100.00;99909.19;5016646;28;20222;-75
2022/09/24 06:36:45;;;;;;;8.33;7.27;;;;;;;11.89;100.00;99899.59;5014231;28;20240;-74
2022/09/24 06:39:10;;;;;;;8.30;7.40;;;;;;;11.94;100.00;99905.53;5013089;28;20191;-75
2022/09/24 06:41:36;;;;;;;8.20;7.40;;;;;;;11.97;100.00;99908.03;5014836;28;20193;-75
2022/09/24 06:44:01;;;;;;;7.60;6.80;;;;;;;12.03;100.00;99907.97;5014306;28;20191;-74
2022/09/24 06:46:27;;;;;;;7.20;6.50;;;;;;;12.08;100.00;99899.22;5012419;28;20307;-75
2022/09/24 06:48:55;;;;;;;7.30;6.60;;;;;;;12.13;100.00;99898.25;5012906;28;20198;-75
2022/09/24 06:51:20;;;;;;;6.80;6.07;;;;;;;12.15;100.00;99890.41;5021550;28;20204;-75
2022/09/24 06:53:50;;;;;;;6.20;5.60;;;;;;;12.21;100.00;99895.47;5016707;28;20270;-75
2022/09/24 06:56:15;;;;;;;5.50;4.90;;;;;;;12.24;100.00;99900.63;5021787;28;20240;-75
2022/09/24 06:58:40;;;;;;;5.37;4.87;;;;;;;12.25;100.00;99902.28;5028414;28;20230;-75
2022/09/24 07:01:07;;;;;;;4.83;4.50;;;;;;;12.28;100.00;99902.22;5022286;28;20188;-74
2022/09/24 07:03:33;;;;;;;4.90;4.50;;;;;;;12.32;100.00;99900.44;5017578;28;20641;-74
2022/09/24 07:06:01;;;;;;;4.63;4.33;;;;;;;12.37;100.00;99902.94;5025248;28;20207;-75
2022/09/24 07:08:26;;;;;;;4.90;4.50;;;;;;;12.41;100.00;99902.81;5024828;28;20183;-75
2022/09/24 07:10:51;;;;;;;4.70;4.40;;;;;;;12.45;100.00;99914.84;5023644;28;20186;-74
2022/09/24 07:13:17;;;;;;;4.23;3.83;;;;;;;12.50;100.00;99909.53;5026837;28;20662;-75
2022/09/24 07:15:44;;;;;;;4.97;3.80;;;;;;;12.55;100.00;99907.69;5018456;28;20222;-75
2022/09/24 07:18:10;;;;;;;4.33;4.03;;;;;;;12.62;100.00;99909.25;5018452;28;20185;-75
2022/09/24 07:20:35;;;;;;;5.60;4.30;;;;;;;12.71;100.00;99912.50;5026242;28;20186;-75
2022/09/24 07:23:05;;;;;;;4.33;4.03;;;;;;;12.78;100.00;99909.72;5025358;28;20197;-75
2022/09/24 07:25:31;;;;;;;4.17;3.87;;;;;;;12.88;100.00;99925.09;5022990;28;20217;-74
2022/09/24 07:28:01;;;;;;;4.70;4.30;;;;;;;12.94;100.00;99927.53;5022429;28;20592;-75
2022/09/24 07:30:26;;;;;;;4.20;3.80;;;;;;;12.95;100.00;99924.03;5017524;28;20202;-74
2022/09/24 07:32:55;;;;;;;4.47;4.07;;;;;;;13.00;100.00;99922.19;5021680;28;20243;-74
2022/09/24 07:35:21;;;;;;;4.73;4.03;;;;;;;13.08;100.00;99922.00;5017975;28;20221;-74
2022/09/24 07:37:47;;;;;;;5.33;4.33;;;;;;;13.16;100.00;99933.03;5010330;28;20186;-74
2022/09/24 07:40:12;;;;;;;4.37;4.07;;;;;;;13.22;100.00;99934.66;5012531;28;20658;-73
2022/09/24 07:42:45;;;;;;;4.63;4.23;;;;;;;13.26;100.00;99931.06;5012882;28;20205;-76
2022/09/24 07:45:11;;;;;;;5.00;4.60;;;;;;;13.30;100.00;99926.66;5011812;28;20185;-75
2022/09/24 07:47:36;;;;;;;5.10;4.60;;;;;;;13.32;100.00;99922.25;5018627;28;20193;-75
2022/09/24 07:50:01;;;;;;;5.00;4.60;;;;;;;13.31;100.00;99941.38;5021396;28;20260;-75
2022/09/24 07:52:26;;;;;;;5.60;5.03;;;;;;;13.29;100.00;99938.78;5019244;28;20256;-75
2022/09/24 07:54:53;;;;;;;5.60;5.10;;;;;;;13.31;100.00;99944.81;5019797;28;20219;-75
2022/09/24 07:57:18;;;;;;;6.37;4.70;;;;;;;13.33;100.00;99932.63;5016443;28;20219;-75
2022/09/24 07:59:43;;;;;;;6.30;5.03;;;;;;;13.33;100.00;99926.56;5011455;28;20196;-75
2022/09/24 08:02:16;;;;;;;5.10;4.70;;;;;;;13.36;100.00;99926.47;5013538;28;20185;-75
2022/09/24 08:04:42;;;;;;;4.97;4.30;;;;;;;13.38;100.00;99925.56;5011468;28;20191;-75
2022/09/24 08:07:09;;;;;;;5.33;4.40;;;;;;;13.42;100.00;99921.16;5019059;28;20673;-74
2022/09/24 08:09:35;;;;;;;4.93;4.53;;;;;;;13.46;100.00;99924.53;5015345;28;20183;-76
2022/09/24 08:12:00;;;;;;;4.80;4.30;;;;;;;13.57;100.00;99925.09;5022676;28;20734;-76
2022/09/24 08:14:26;;;;;;;5.03;4.53;;;;;;;13.66;100.00;99922.25;5016815;28;20737;-75
2022/09/24 08:16:51;;;;;;;4.73;4.33;;;;;;;13.78;100.00;99928.84;5016653;28;20201;-77
2022/09/24 08:19:16;;;;;;;4.93;4.53;;;;;;;13.86;100.00;99921.69;5017563;28;20218;-74
2022/09/24 08:21:42;;;;;;;5.40;4.90;;;;;;;13.95;100.00;99924.91;5013807;28;21912;-74
2022/09/24 08:24:07;;;;;;;5.33;4.40;;;;;;;14.05;100.00;99926.38;5014704;28;20215;-74
2022/09/24 08:26:33;;;;;;;5.00;4.60;;;;;;;14.15;100.00;99933.00;5015062;28;20292;-74
2022/09/24 08:28:58;;;;;;;5.37;4.33;;;;;;;14.23;100.00;99930.16;5012768;28;22156;-75
2022/09/24 08:31:23;;;;;;;4.47;4.13;;;;;;;14.29;100.00;99932.56;5016301;28;20195;-74
2022/09/24 08:33:49;;;;;;;4.73;4.33;;;;;;;14.34;100.00;99937.66;5016259;28;20218;-75
2022/09/24 08:36:17;;;;;;;6.73;4.67;;;;;;;14.34;100.00;99935.06;5010576;28;20221;-75
2022/09/24 08:38:42;;;;;;;5.20;4.70;;;;;;;14.33;100.00;99934.19;5016837;28;20184;-74
2022/09/24 08:41:11;;;;;;;5.23;4.80;;;;;;;14.41;100.00;99927.91;5017168;28;20221;-75
2022/09/24 08:43:50;;;;;;;5.03;4.53;;;;;;;14.54;100.00;99917.94;5010401;28;20198;-74
2022/09/24 08:49:25;;;;;;;6.00;5.47;;;;;;;14.81;100.00;99942.31;5015415;28;20201;-74
2022/09/24 08:52:01;;;;;;;5.23;4.83;;;;;;;14.92;100.00;99944.56;5020288;28;20200;-75
2022/09/24 08:54:29;;;;;;;5.27;4.87;;;;;;;15.02;100.00;99942.53;5013047;28;20219;-74
2022/09/24 08:56:56;;;;;;;5.37;4.73;;;;;;;15.06;100.00;99952.78;5012250;28;20262;-75
2022/09/24 08:59:31;;;;;;;5.00;4.50;;;;;;;15.11;100.00;99947.41;5014190;28;20202;-74
2022/09/24 09:02:52;;;;;;;5.53;5.00;;;;;;;15.14;100.00;99949.94;5013529;28;20194;-75
2022/09/24 09:05:23;;;;;;;5.70;5.10;;;;;;;15.19;100.00;99948.03;5009484;28;20196;-75
2022/09/24 09:07:54;;;;;;;5.20;4.80;;;;;;;15.31;100.00;99953.72;5010361;28;20197;-75
2022/09/24 09:10:27;;;;;;;5.40;5.00;;;;;;;15.40;100.00;99942.97;5016572;28;20216;-75
2022/09/24 09:13:11;;;;;;;5.30;4.90;;;;;;;15.51;100.00;99942.59;5036328;28;20215;-73
2022/09/24 09:15:45;;;;;;;6.00;5.50;;;;;;;15.62;100.00;99945.69;5044924;28;20208;-73
2022/09/24 09:18:30;;;;;;;5.60;5.10;;;;;;;15.80;100.00;99943.31;5020123;28;20685;-76
2022/09/24 09:21:14;;;;;;;6.20;5.60;;;;;;;15.99;100.00;99941.78;5036641;28;20184;-75
2022/09/24 09:23:51;;;;;;;5.57;5.17;;;;;;;16.20;100.00;99948.88;5017770;28;20185;-75
2022/09/24 09:26:19;;;;;;;5.70;5.20;;;;;;;16.33;100.00;99949.25;5016898;28;20223;-74
2022/09/24 09:28:46;;;;;;;5.40;4.90;;;;;;;16.43;100.00;99947.97;5016416;28;20554;-74
2022/09/24 09:31:42;;;;;;;5.40;4.90;;;;;;;16.53;100.00;99948.47;5019528;28;20183;-74
2022/09/24 09:34:17;;;;;;;5.33;4.93;;;;;;;16.56;100.00;99956.19;5020650;28;20214;-73
2022/09/24 09:36:57;;;;;;;6.10;5.40;;;;;;;16.52;100.00;99952.84;5015778;28;20771;-75
2022/09/24 09:39:43;;;;;;;6.77;6.17;;;;;;;16.54;100.00;99953.63;5014603;28;20652;-74
2022/09/24 09:42:21;;;;;;;5.80;5.30;;;;;;;16.53;100.00;99949.31;5018536;28;20552;-73
2022/09/24 09:44:48;;;;;;;5.90;5.40;;;;;;;16.48;100.00;99943.44;5013296;28;20197;-74
2022/09/24 09:47:34;;;;;;;6.10;5.57;;;;;;;16.44;100.00;99942.69;5015434;28;20211;-75
2022/09/24 09:50:11;;;;;;;5.57;5.17;;;;;;;16.43;100.00;99945.38;5015875;28;20196;-74
2022/09/24 09:52:38;;;;;;;5.47;5.07;;;;;;;16.38;100.00;99945.56;5014658;28;20202;-74
2022/09/24 09:55:05;;;;;;;5.63;5.20;;;;;;;16.32;100.00;99944.94;5009284;28;20215;-73
2022/09/24 09:57:34;;;;;;;5.40;5.00;;;;;;;16.26;100.00;99941.66;5010479;28;20210;-73
2022/09/24 10:00:01;;;;;;;6.33;5.73;;;;;;;16.19;100.00;99932.31;5012938;28;20184;-74
2022/09/24 10:02:30;;;;;;;5.90;5.40;;;;;;;16.13;100.00;99933.41;5017746;28;20181;-74
2022/09/24 10:05:00;;;;;;;5.97;5.47;;;;;;;16.12;100.00;99943.94;5016299;28;20272;-74
2022/09/24 10:07:26;;;;;;;6.00;5.50;;;;;;;16.15;100.00;99936.00;5011476;28;20210;-75
2022/09/24 10:10:17;;;;;;;5.83;5.33;;;;;;;16.34;100.00;99940.47;5016894;28;20197;-74
2022/09/24 10:12:42;;;;;;;5.57;5.07;;;;;;;16.64;100.00;99935.00;5020758;28;20181;-75
2022/09/24 10:15:14;;;;;;;5.90;5.30;;;;;;;17.04;100.00;99949.09;5013130;28;20705;-74
2022/09/24 10:17:41;;;;;;;5.90;5.50;;;;;;;17.45;100.00;99930.78;5019449;28;20271;-75
2022/09/24 10:20:14;;;;;;;6.37;5.63;;;;;;;17.76;100.00;99939.91;5011279;28;20278;-74
2022/09/24 10:22:44;;;;;;;7.03;5.63;;;;;;;17.98;100.00;99939.81;5014782;28;20215;-75
2022/09/24 10:25:25;;;;;;;5.93;5.43;;;;;;;18.08;100.00;99942.00;5015221;28;20542;-75
2022/09/24 10:30:32;;;;;;;5.57;5.17;;;;;;;18.09;100.00;99933.22;5020909;28;20613;-75
2022/09/24 10:30:55;;;;;;;5.43;4.93;;;;;;;18.05;100.00;99931.69;5026119;28;20199;-75
2022/09/24 10:33:21;;;;;;;5.90;5.30;;;;;;;18.17;100.00;99928.50;5040021;28;20199;-74
2022/09/24 10:35:47;;;;;;;4.93;4.53;;;;;;;18.40;100.00;99939.66;5043310;28;20206;-74
2022/09/24 10:38:18;;;;;;;5.30;4.90;;;;;;;18.66;100.00;99932.34;5043586;28;20184;-74
2022/09/24 10:40:44;;;;;;;5.93;5.10;;;;;;;18.89;100.00;99932.06;5046110;28;20502;-74
2022/09/24 10:43:19;;;;;;;5.20;4.77;;;;;;;19.08;100.00;99931.19;5040040;28;20202;-74
2022/09/24 10:46:03;;;;;;;4.83;4.43;;;;;;;19.20;100.00;99921.84;5043118;28;20206;-74
2022/09/24 10:48:43;;;;;;;4.77;4.27;;;;;;;19.38;100.00;99929.69;5041942;28;20171;-74
2022/09/24 10:51:35;;;;;;;4.57;4.17;;;;;;;19.53;100.00;99918.41;5039800;28;20188;-74
2022/09/24 10:54:37;;;;;;;4.83;4.43;;;;;;;19.63;100.00;99910.88;5039992;28;20208;-73
2022/09/24 10:57:19;;;;;;;5.47;5.07;;;;;;;19.70;100.00;99914.91;5043278;28;20211;-74
2022/09/24 10:59:44;;;;;;;4.93;4.50;;;;;;;19.62;100.00;99907.44;5045288;28;20168;-73
2022/09/24 11:02:12;;;;;;;4.20;3.90;;;;;;;19.66;100.00;99910.72;5049699;28;20182;-74
2022/09/24 11:04:59;;;;;;;4.50;4.20;;;;;;;19.79;100.00;99906.53;5041343;28;20177;-73
2022/09/24 11:07:30;;;;;;;4.33;3.93;;;;;;;19.93;100.00;99908.44;5040238;28;20216;-74
2022/09/24 11:10:13;;;;;;;4.53;3.90;;;;;;;20.13;100.00;99908.28;5041863;28;20179;-75
2022/09/24 11:12:54;;;;;;;3.97;3.60;;;;;;;20.24;100.00;99906.75;5040957;28;20187;-74
2022/09/24 11:15:33;;;;;;;4.30;3.90;;;;;;;20.36;100.00;99902.59;5049065;28;20209;-74
2022/09/24 11:18:08;;;;;;;6.37;5.57;;;;;;;20.41;100.00;99897.09;5041690;28;20202;-74
2022/09/24 11:20:37;;;;;;;5.90;5.30;;;;;;;20.48;100.00;99902.84;5036945;28;20172;-75
2022/09/24 11:23:20;;;;;;;4.83;4.43;;;;;;;20.48;100.00;99893.16;5036483;28;20275;-75
2022/09/24 11:25:57;;;;;;;9.80;8.90;;;;;;;20.55;100.00;99891.91;5038124;28;20196;-74
2022/09/24 11:29:00;;;;;;;5.60;5.10;;;;;;;20.40;100.00;99892.78;5043173;28;20164;-74
2022/09/24 11:31:31;;;;;;;4.53;4.20;;;;;;;20.31;100.00;99888.00;5038412;28;20435;-74
2022/09/24 11:34:07;;;;;;;4.03;3.73;;;;;;;20.24;100.00;99888.38;5043841;28;20197;-75
2022/09/24 11:36:48;;;;;;;4.03;3.73;;;;;;;20.12;100.00;99878.53;5053025;28;20207;-74
2022/09/24 11:39:33;;;;;;;4.10;3.80;;;;;;;20.03;100.00;99884.28;5043016;28;20190;-74
2022/09/24 11:42:15;;;;;;;3.77;3.47;;;;;;;19.98;100.00;99873.19;5046190;28;20866;-75
2022/09/24 11:45:18;;;;;;;3.57;3.27;;;;;;;19.91;100.00;99881.41;5043053;28;20243;-74
2022/09/24 11:48:02;;;;;;;3.70;3.40;;;;;;;19.87;100.00;99877.25;5037882;28;20278;-74
2022/09/24 11:50:53;;;;;;;3.53;3.23;;;;;;;19.99;100.00;99869.63;5035985;28;20255;-75